sensor_id;sensor_type;location;lat;lon;timestamp;P1;durP1;ratioP1;P2;durP2;ratioP2
14076;SDS011;7114;51.100;13.998;2023-11-22T00:02:00;21.08;;;9.18;;
14076;SDS011;7114;51.100;13.998;2023-11-22T00:04:26;23.73;;;9.33;;
14076;SDS011;7114;51.100;13.998;2023-11-22T00:06:52;22.42;;;9.40;;
14076;SDS011;7114;51.100;13.998;2023-11-22T00:09:19;22.50;;;9.32;;
14076;SDS011;7114;51.100;13.998;2023-11-22T00:11:48;24.45;;;9.70;;
14076;SDS011;7114;51.100;13.998;2023-11-22T00:14:16;23.25;;;9.55;;
14076;SDS011;7114;51.100;13.998;2023-11-22T00:16:42;23.30;;;9.20;;
14076;SDS011;7114;51.100;13.998;2023-11-22T00:19:08;23.75;;;10.10;;
14076;SDS011;7114;51.100;13.998;2023-11-22T00:21:35;23.17;;;9.43;;
14076;SDS011;7114;51.100;13.998;2023-11-22T00:24:01;23.00;;;8.90;;
14076;SDS011;7114;51.100;13.998;2023-11-22T00:26:29;22.60;;;9.60;;
14076;SDS011;7114;51.100;13.998;2023-11-22T00:28:57;22.73;;;9.03;;
14076;SDS011;7114;51.100;13.998;2023-11-22T00:31:25;24.27;;;9.23;;
14076;SDS011;7114;51.100;13.998;2023-11-22T00:33:51;24.30;;;9.48;;
14076;SDS011;7114;51.100;13.998;2023-11-22T00:36:17;23.50;;;9.25;;
14076;SDS011;7114;51.100;13.998;2023-11-22T00:38:44;23.33;;;9.18;;
14076;SDS011;7114;51.100;13.998;2023-11-22T00:41:11;26.77;;;9.47;;
14076;SDS011;7114;51.100;13.998;2023-11-22T00:43:39;23.48;;;9.27;;
14076;SDS011;7114;51.100;13.998;2023-11-22T00:46:05;23.90;;;9.48;;
14076;SDS011;7114;51.100;13.998;2023-11-22T00:48:33;25.75;;;9.75;;
14076;SDS011;7114;51.100;13.998;2023-11-22T00:50:59;24.30;;;9.52;;
14076;SDS011;7114;51.100;13.998;2023-11-22T00:53:32;24.80;;;9.73;;
14076;SDS011;7114;51.100;13.998;2023-11-22T00:55:58;25.10;;;9.43;;
14076;SDS011;7114;51.100;13.998;2023-11-22T00:58:25;26.17;;;10.57;;
14076;SDS011;7114;51.100;13.998;2023-11-22T01:00:52;26.30;;;9.68;;
14076;SDS011;7114;51.100;13.998;2023-11-22T01:03:18;25.15;;;9.82;;
14076;SDS011;7114;51.100;13.998;2023-11-22T01:05:46;25.77;;;9.70;;
14076;SDS011;7114;51.100;13.998;2023-11-22T01:08:13;23.95;;;9.57;;
14076;SDS011;7114;51.100;13.998;2023-11-22T01:10:39;23.98;;;9.88;;
14076;SDS011;7114;51.100;13.998;2023-11-22T01:13:06;25.10;;;9.30;;
14076;SDS011;7114;51.100;13.998;2023-11-22T01:15:32;24.38;;;9.48;;
14076;SDS011;7114;51.100;13.998;2023-11-22T01:17:59;26.57;;;9.63;;
14076;SDS011;7114;51.100;13.998;2023-11-22T01:20:25;26.15;;;9.63;;
14076;SDS011;7114;51.100;13.998;2023-11-22T01:22:53;23.13;;;9.13;;
14076;SDS011;7114;51.100;13.998;2023-11-22T01:25:19;24.08;;;9.38;;
14076;SDS011;7114;51.100;13.998;2023-11-22T01:27:45;25.60;;;9.73;;
14076;SDS011;7114;51.100;13.998;2023-11-22T01:30:12;28.23;;;9.67;;
14076;SDS011;7114;51.100;13.998;2023-11-22T01:32:39;26.58;;;9.27;;
14076;SDS011;7114;51.100;13.998;2023-11-22T01:35:06;24.85;;;9.05;;
14076;SDS011;7114;51.100;13.998;2023-11-22T01:37:33;23.48;;;9.00;;
14076;SDS011;7114;51.100;13.998;2023-11-22T01:40:00;23.60;;;8.98;;
14076;SDS011;7114;51.100;13.998;2023-11-22T01:42:28;24.20;;;8.90;;
14076;SDS011;7114;51.100;13.998;2023-11-22T01:44:54;24.38;;;9.48;;
14076;SDS011;7114;51.100;13.998;2023-11-22T01:47:21;24.98;;;10.10;;
14076;SDS011;7114;51.100;13.998;2023-11-22T01:49:47;24.67;;;9.10;;
14076;SDS011;7114;51.100;13.998;2023-11-22T01:52:14;24.92;;;9.70;;
14076;SDS011;7114;51.100;13.998;2023-11-22T01:54:40;24.13;;;9.13;;
14076;SDS011;7114;51.100;13.998;2023-11-22T01:57:10;26.65;;;10.02;;
14076;SDS011;7114;51.100;13.998;2023-11-22T01:59:37;24.35;;;8.95;;
14076;SDS011;7114;51.100;13.998;2023-11-22T02:02:04;22.98;;;8.77;;
14076;SDS011;7114;51.100;13.998;2023-11-22T02:04:30;24.77;;;9.13;;
14076;SDS011;7114;51.100;13.998;2023-11-22T02:06:56;25.37;;;8.97;;
14076;SDS011;7114;51.100;13.998;2023-11-22T02:09:23;24.70;;;8.70;;
14076;SDS011;7114;51.100;13.998;2023-11-22T02:11:50;21.40;;;8.35;;
14076;SDS011;7114;51.100;13.998;2023-11-22T02:14:17;27.10;;;8.68;;
14076;SDS011;7114;51.100;13.998;2023-11-22T02:16:44;22.00;;;8.68;;
14076;SDS011;7114;51.100;13.998;2023-11-22T02:19:13;21.87;;;8.70;;
14076;SDS011;7114;51.100;13.998;2023-11-22T02:21:40;25.27;;;9.15;;
14076;SDS011;7114;51.100;13.998;2023-11-22T02:24:08;23.42;;;9.15;;
14076;SDS011;7114;51.100;13.998;2023-11-22T02:26:35;27.83;;;9.68;;
14076;SDS011;7114;51.100;13.998;2023-11-22T02:29:01;25.00;;;9.45;;
14076;SDS011;7114;51.100;13.998;2023-11-22T02:31:29;28.00;;;9.80;;
14076;SDS011;7114;51.100;13.998;2023-11-22T02:33:55;23.80;;;9.13;;
14076;SDS011;7114;51.100;13.998;2023-11-22T02:36:21;26.33;;;8.93;;
14076;SDS011;7114;51.100;13.998;2023-11-22T02:38:49;26.48;;;9.82;;
14076;SDS011;7114;51.100;13.998;2023-11-22T02:41:17;22.73;;;9.02;;
14076;SDS011;7114;51.100;13.998;2023-11-22T02:43:43;25.13;;;8.83;;
14076;SDS011;7114;51.100;13.998;2023-11-22T02:46:11;24.73;;;9.48;;
14076;SDS011;7114;51.100;13.998;2023-11-22T02:48:37;23.08;;;8.55;;
14076;SDS011;7114;51.100;13.998;2023-11-22T02:51:04;20.50;;;8.52;;
14076;SDS011;7114;51.100;13.998;2023-11-22T02:53:31;20.83;;;7.93;;
14076;SDS011;7114;51.100;13.998;2023-11-22T02:55:59;23.70;;;8.37;;
14076;SDS011;7114;51.100;13.998;2023-11-22T02:58:27;22.52;;;8.48;;
14076;SDS011;7114;51.100;13.998;2023-11-22T03:00:53;24.17;;;8.95;;
14076;SDS011;7114;51.100;13.998;2023-11-22T03:03:22;20.55;;;7.88;;
14076;SDS011;7114;51.100;13.998;2023-11-22T03:05:48;21.48;;;8.48;;
14076;SDS011;7114;51.100;13.998;2023-11-22T03:08:15;23.97;;;8.17;;
14076;SDS011;7114;51.100;13.998;2023-11-22T03:10:42;22.38;;;7.93;;
14076;SDS011;7114;51.100;13.998;2023-11-22T03:13:08;20.80;;;8.23;;
14076;SDS011;7114;51.100;13.998;2023-11-22T03:15:36;21.90;;;8.25;;
14076;SDS011;7114;51.100;13.998;2023-11-22T03:18:02;20.52;;;8.00;;
14076;SDS011;7114;51.100;13.998;2023-11-22T03:20:31;21.87;;;8.27;;
14076;SDS011;7114;51.100;13.998;2023-11-22T03:22:57;21.50;;;8.13;;
14076;SDS011;7114;51.100;13.998;2023-11-22T03:25:25;21.23;;;8.13;;
14076;SDS011;7114;51.100;13.998;2023-11-22T03:27:51;22.38;;;7.50;;
14076;SDS011;7114;51.100;13.998;2023-11-22T03:30:17;20.75;;;7.70;;
14076;SDS011;7114;51.100;13.998;2023-11-22T03:32:46;20.87;;;7.63;;
14076;SDS011;7114;51.100;13.998;2023-11-22T03:35:13;21.20;;;7.78;;
14076;SDS011;7114;51.100;13.998;2023-11-22T03:37:39;21.30;;;8.02;;
14076;SDS011;7114;51.100;13.998;2023-11-22T03:40:06;21.77;;;7.93;;
14076;SDS011;7114;51.100;13.998;2023-11-22T03:42:35;19.98;;;7.75;;
14076;SDS011;7114;51.100;13.998;2023-11-22T03:45:01;21.53;;;8.40;;
14076;SDS011;7114;51.100;13.998;2023-11-22T03:47:28;23.20;;;8.35;;
14076;SDS011;7114;51.100;13.998;2023-11-22T03:49:56;22.98;;;7.93;;
14076;SDS011;7114;51.100;13.998;2023-11-22T03:52:22;21.75;;;8.73;;
14076;SDS011;7114;51.100;13.998;2023-11-22T03:54:48;24.63;;;8.80;;
14076;SDS011;7114;51.100;13.998;2023-11-22T03:57:15;24.17;;;8.83;;
14076;SDS011;7114;51.100;13.998;2023-11-22T03:59:41;23.00;;;8.40;;
14076;SDS011;7114;51.100;13.998;2023-11-22T04:02:08;24.10;;;8.73;;
14076;SDS011;7114;51.100;13.998;2023-11-22T04:04:34;24.48;;;8.98;;
14076;SDS011;7114;51.100;13.998;2023-11-22T04:07:03;27.17;;;9.23;;
14076;SDS011;7114;51.100;13.998;2023-11-22T04:09:29;25.10;;;9.17;;
14076;SDS011;7114;51.100;13.998;2023-11-22T04:11:56;26.48;;;9.63;;
14076;SDS011;7114;51.100;13.998;2023-11-22T04:14:22;24.85;;;8.95;;
14076;SDS011;7114;51.100;13.998;2023-11-22T04:16:49;22.80;;;8.65;;
14076;SDS011;7114;51.100;13.998;2023-11-22T04:19:15;25.85;;;9.07;;
14076;SDS011;7114;51.100;13.998;2023-11-22T04:21:42;25.57;;;8.90;;
14076;SDS011;7114;51.100;13.998;2023-11-22T04:24:09;23.55;;;8.60;;
14076;SDS011;7114;51.100;13.998;2023-11-22T04:26:37;24.80;;;8.73;;
14076;SDS011;7114;51.100;13.998;2023-11-22T04:29:03;25.58;;;9.15;;
14076;SDS011;7114;51.100;13.998;2023-11-22T04:31:30;26.67;;;9.80;;
14076;SDS011;7114;51.100;13.998;2023-11-22T04:33:56;25.67;;;8.97;;
14076;SDS011;7114;51.100;13.998;2023-11-22T04:36:26;24.98;;;8.70;;
14076;SDS011;7114;51.100;13.998;2023-11-22T04:38:52;25.98;;;8.70;;
14076;SDS011;7114;51.100;13.998;2023-11-22T04:41:20;24.73;;;8.88;;
14076;SDS011;7114;51.100;13.998;2023-11-22T04:43:47;26.95;;;8.95;;
14076;SDS011;7114;51.100;13.998;2023-11-22T04:46:14;24.20;;;8.70;;
14076;SDS011;7114;51.100;13.998;2023-11-22T04:48:40;23.40;;;9.02;;
14076;SDS011;7114;51.100;13.998;2023-11-22T04:51:09;25.58;;;8.48;;
14076;SDS011;7114;51.100;13.998;2023-11-22T04:53:36;25.90;;;9.70;;
14076;SDS011;7114;51.100;13.998;2023-11-22T04:56:03;24.40;;;8.95;;
14076;SDS011;7114;51.100;13.998;2023-11-22T04:58:32;26.70;;;9.73;;
14076;SDS011;7114;51.100;13.998;2023-11-22T05:00:58;27.20;;;9.70;;
14076;SDS011;7114;51.100;13.998;2023-11-22T05:03:26;24.88;;;9.55;;
14076;SDS011;7114;51.100;13.998;2023-11-22T05:05:53;26.33;;;9.77;;
14076;SDS011;7114;51.100;13.998;2023-11-22T05:08:19;26.60;;;9.50;;
14076;SDS011;7114;51.100;13.998;2023-11-22T05:10:45;27.17;;;9.77;;
14076;SDS011;7114;51.100;13.998;2023-11-22T05:13:12;27.20;;;10.18;;
14076;SDS011;7114;51.100;13.998;2023-11-22T05:15:39;27.50;;;9.95;;
14076;SDS011;7114;51.100;13.998;2023-11-22T05:18:06;27.13;;;9.90;;
14076;SDS011;7114;51.100;13.998;2023-11-22T05:20:32;26.15;;;9.18;;
14076;SDS011;7114;51.100;13.998;2023-11-22T05:22:58;27.30;;;10.40;;
14076;SDS011;7114;51.100;13.998;2023-11-22T05:25:26;25.00;;;9.27;;
14076;SDS011;7114;51.100;13.998;2023-11-22T05:27:52;27.85;;;9.75;;
14076;SDS011;7114;51.100;13.998;2023-11-22T05:30:18;26.08;;;9.57;;
14076;SDS011;7114;51.100;13.998;2023-11-22T05:32:48;26.17;;;9.65;;
14076;SDS011;7114;51.100;13.998;2023-11-22T05:35:14;24.17;;;9.07;;
14076;SDS011;7114;51.100;13.998;2023-11-22T05:37:41;25.40;;;9.05;;
14076;SDS011;7114;51.100;13.998;2023-11-22T05:40:08;27.98;;;10.20;;
14076;SDS011;7114;51.100;13.998;2023-11-22T05:42:35;27.52;;;10.13;;
14076;SDS011;7114;51.100;13.998;2023-11-22T05:45:02;29.77;;;11.10;;
14076;SDS011;7114;51.100;13.998;2023-11-22T05:47:31;27.17;;;10.30;;
14076;SDS011;7114;51.100;13.998;2023-11-22T05:49:58;25.70;;;9.90;;
14076;SDS011;7114;51.100;13.998;2023-11-22T05:52:25;24.55;;;9.50;;
14076;SDS011;7114;51.100;13.998;2023-11-22T05:54:51;27.10;;;10.80;;
14076;SDS011;7114;51.100;13.998;2023-11-22T05:57:17;36.30;;;13.13;;
14076;SDS011;7114;51.100;13.998;2023-11-22T05:59:44;36.30;;;13.17;;
14076;SDS011;7114;51.100;13.998;2023-11-22T06:02:11;30.58;;;11.75;;
14076;SDS011;7114;51.100;13.998;2023-11-22T06:04:38;26.58;;;10.10;;
14076;SDS011;7114;51.100;13.998;2023-11-22T06:07:06;27.38;;;9.98;;
14076;SDS011;7114;51.100;13.998;2023-11-22T06:09:33;27.10;;;10.15;;
14076;SDS011;7114;51.100;13.998;2023-11-22T06:11:59;29.33;;;10.23;;
14076;SDS011;7114;51.100;13.998;2023-11-22T06:14:25;30.15;;;10.10;;
14076;SDS011;7114;51.100;13.998;2023-11-22T06:16:52;26.38;;;10.07;;
14076;SDS011;7114;51.100;13.998;2023-11-22T06:19:18;25.67;;;10.02;;
14076;SDS011;7114;51.100;13.998;2023-11-22T06:21:44;28.92;;;10.45;;
14076;SDS011;7114;51.100;13.998;2023-11-22T06:24:12;29.07;;;10.20;;
14076;SDS011;7114;51.100;13.998;2023-11-22T06:26:41;27.77;;;10.10;;
14076;SDS011;7114;51.100;13.998;2023-11-22T06:29:07;26.17;;;9.98;;
14076;SDS011;7114;51.100;13.998;2023-11-22T06:31:34;26.85;;;10.10;;
14076;SDS011;7114;51.100;13.998;2023-11-22T06:34:00;28.23;;;9.80;;
14076;SDS011;7114;51.100;13.998;2023-11-22T06:36:27;27.67;;;9.63;;
14076;SDS011;7114;51.100;13.998;2023-11-22T06:38:54;27.08;;;9.93;;
14076;SDS011;7114;51.100;13.998;2023-11-22T06:41:22;25.98;;;10.07;;
14076;SDS011;7114;51.100;13.998;2023-11-22T06:43:48;26.92;;;9.32;;
14076;SDS011;7114;51.100;13.998;2023-11-22T06:46:15;28.73;;;10.50;;
14076;SDS011;7114;51.100;13.998;2023-11-22T06:48:41;24.73;;;9.10;;
14076;SDS011;7114;51.100;13.998;2023-11-22T06:51:08;25.05;;;9.10;;
14076;SDS011;7114;51.100;13.998;2023-11-22T06:53:35;29.38;;;10.52;;
14076;SDS011;7114;51.100;13.998;2023-11-22T06:56:01;25.38;;;9.00;;
14076;SDS011;7114;51.100;13.998;2023-11-22T06:58:29;25.40;;;9.52;;
14076;SDS011;7114;51.100;13.998;2023-11-22T07:00:56;25.67;;;8.93;;
14076;SDS011;7114;51.100;13.998;2023-11-22T07:03:22;27.23;;;10.15;;
14076;SDS011;7114;51.100;13.998;2023-11-22T07:05:49;28.55;;;10.10;;
14076;SDS011;7114;51.100;13.998;2023-11-22T07:08:15;26.80;;;10.10;;
14076;SDS011;7114;51.100;13.998;2023-11-22T07:10:42;29.73;;;9.60;;
14076;SDS011;7114;51.100;13.998;2023-11-22T07:13:09;29.50;;;10.53;;
14076;SDS011;7114;51.100;13.998;2023-11-22T07:15:37;30.98;;;10.80;;
14076;SDS011;7114;51.100;13.998;2023-11-22T07:18:04;26.90;;;11.50;;
14076;SDS011;7114;51.100;13.998;2023-11-22T07:20:31;28.25;;;10.90;;
14076;SDS011;7114;51.100;13.998;2023-11-22T07:22:57;28.65;;;11.00;;
14076;SDS011;7114;51.100;13.998;2023-11-22T07:25:25;30.63;;;11.00;;
14076;SDS011;7114;51.100;13.998;2023-11-22T07:27:51;27.60;;;10.55;;
14076;SDS011;7114;51.100;13.998;2023-11-22T07:30:18;29.17;;;10.43;;
14076;SDS011;7114;51.100;13.998;2023-11-22T07:32:49;26.65;;;9.57;;
14076;SDS011;7114;51.100;13.998;2023-11-22T07:35:16;25.35;;;9.38;;
14076;SDS011;7114;51.100;13.998;2023-11-22T07:37:44;26.00;;;10.13;;
14076;SDS011;7114;51.100;13.998;2023-11-22T07:40:11;25.65;;;10.00;;
14076;SDS011;7114;51.100;13.998;2023-11-22T07:42:38;27.45;;;9.77;;
14076;SDS011;7114;51.100;13.998;2023-11-22T07:45:05;26.83;;;9.80;;
14076;SDS011;7114;51.100;13.998;2023-11-22T07:47:35;25.17;;;9.52;;
14076;SDS011;7114;51.100;13.998;2023-11-22T07:50:03;29.57;;;9.90;;
14076;SDS011;7114;51.100;13.998;2023-11-22T07:52:32;27.25;;;9.73;;
14076;SDS011;7114;51.100;13.998;2023-11-22T07:54:58;25.15;;;10.38;;
14076;SDS011;7114;51.100;13.998;2023-11-22T07:57:25;25.05;;;9.73;;
14076;SDS011;7114;51.100;13.998;2023-11-22T07:59:51;24.48;;;9.38;;
14076;SDS011;7114;51.100;13.998;2023-11-22T08:02:20;25.50;;;8.87;;
14076;SDS011;7114;51.100;13.998;2023-11-22T08:04:46;26.05;;;9.13;;
14076;SDS011;7114;51.100;13.998;2023-11-22T08:07:16;23.08;;;9.93;;
14076;SDS011;7114;51.100;13.998;2023-11-22T08:09:43;25.33;;;9.00;;
14076;SDS011;7114;51.100;13.998;2023-11-22T08:12:09;23.92;;;9.13;;
14076;SDS011;7114;51.100;13.998;2023-11-22T08:14:36;21.93;;;8.47;;
14076;SDS011;7114;51.100;13.998;2023-11-22T08:17:03;24.35;;;8.60;;
14076;SDS011;7114;51.100;13.998;2023-11-22T08:19:30;26.85;;;8.82;;
14076;SDS011;7114;51.100;13.998;2023-11-22T08:21:57;23.48;;;8.05;;
14076;SDS011;7114;51.100;13.998;2023-11-22T08:24:24;21.65;;;7.22;;
14076;SDS011;7114;51.100;13.998;2023-11-22T08:26:51;18.80;;;7.20;;
14076;SDS011;7114;51.100;13.998;2023-11-22T08:29:17;20.67;;;7.28;;
14076;SDS011;7114;51.100;13.998;2023-11-22T08:31:43;21.83;;;7.68;;
14076;SDS011;7114;51.100;13.998;2023-11-22T08:34:10;19.92;;;6.68;;
14076;SDS011;7114;51.100;13.998;2023-11-22T08:36:36;21.80;;;7.20;;
14076;SDS011;7114;51.100;13.998;2023-11-22T08:39:03;18.43;;;6.90;;
14076;SDS011;7114;51.100;13.998;2023-11-22T08:41:31;20.80;;;7.20;;
14076;SDS011;7114;51.100;13.998;2023-11-22T08:43:58;18.20;;;6.60;;
14076;SDS011;7114;51.100;13.998;2023-11-22T08:46:25;20.05;;;6.78;;
14076;SDS011;7114;51.100;13.998;2023-11-22T08:48:51;19.50;;;7.03;;
14076;SDS011;7114;51.100;13.998;2023-11-22T08:51:18;19.47;;;6.83;;
14076;SDS011;7114;51.100;13.998;2023-11-22T08:53:44;18.27;;;6.28;;
14076;SDS011;7114;51.100;13.998;2023-11-22T08:56:10;19.48;;;6.50;;
14076;SDS011;7114;51.100;13.998;2023-11-22T08:58:39;21.02;;;6.85;;
14076;SDS011;7114;51.100;13.998;2023-11-22T09:01:05;18.42;;;7.18;;
14076;SDS011;7114;51.100;13.998;2023-11-22T09:03:33;19.73;;;6.60;;
14076;SDS011;7114;51.100;13.998;2023-11-22T09:05:59;19.42;;;6.82;;
14076;SDS011;7114;51.100;13.998;2023-11-22T09:08:26;17.73;;;5.68;;
14076;SDS011;7114;51.100;13.998;2023-11-22T09:10:52;18.00;;;6.10;;
14076;SDS011;7114;51.100;13.998;2023-11-22T09:13:19;15.63;;;5.40;;
14076;SDS011;7114;51.100;13.998;2023-11-22T09:15:47;17.43;;;5.73;;
14076;SDS011;7114;51.100;13.998;2023-11-22T09:18:13;14.23;;;5.47;;
14076;SDS011;7114;51.100;13.998;2023-11-22T09:20:41;18.65;;;5.85;;
14076;SDS011;7114;51.100;13.998;2023-11-22T09:23:09;15.93;;;5.55;;
14076;SDS011;7114;51.100;13.998;2023-11-22T09:25:35;16.15;;;5.57;;
14076;SDS011;7114;51.100;13.998;2023-11-22T09:28:01;15.43;;;5.30;;
14076;SDS011;7114;51.100;13.998;2023-11-22T09:30:31;14.48;;;5.25;;
14076;SDS011;7114;51.100;13.998;2023-11-22T09:33:04;17.42;;;5.72;;
14076;SDS011;7114;51.100;13.998;2023-11-22T09:35:32;15.38;;;5.30;;
14076;SDS011;7114;51.100;13.998;2023-11-22T09:37:58;15.82;;;5.63;;
14076;SDS011;7114;51.100;13.998;2023-11-22T09:40:25;17.77;;;5.73;;
14076;SDS011;7114;51.100;13.998;2023-11-22T09:42:53;18.73;;;6.55;;
14076;SDS011;7114;51.100;13.998;2023-11-22T09:45:20;17.80;;;6.22;;
14076;SDS011;7114;51.100;13.998;2023-11-22T09:47:47;16.52;;;6.13;;
14076;SDS011;7114;51.100;13.998;2023-11-22T09:50:16;16.85;;;6.10;;
14076;SDS011;7114;51.100;13.998;2023-11-22T09:52:46;16.97;;;6.03;;
14076;SDS011;7114;51.100;13.998;2023-11-22T09:55:14;16.63;;;6.47;;
14076;SDS011;7114;51.100;13.998;2023-11-22T09:57:40;20.20;;;7.25;;
14076;SDS011;7114;51.100;13.998;2023-11-22T10:00:07;16.77;;;6.05;;
14076;SDS011;7114;51.100;13.998;2023-11-22T10:02:38;18.38;;;6.70;;
14076;SDS011;7114;51.100;13.998;2023-11-22T10:05:06;18.97;;;6.47;;
14076;SDS011;7114;51.100;13.998;2023-11-22T10:07:35;17.33;;;6.28;;
14076;SDS011;7114;51.100;13.998;2023-11-22T10:10:02;18.65;;;7.00;;
14076;SDS011;7114;51.100;13.998;2023-11-22T10:12:31;18.13;;;5.93;;
14076;SDS011;7114;51.100;13.998;2023-11-22T10:15:10;15.35;;;5.50;;
14076;SDS011;7114;51.100;13.998;2023-11-22T10:17:37;16.77;;;5.67;;
14076;SDS011;7114;51.100;13.998;2023-11-22T10:20:04;14.93;;;5.30;;
14076;SDS011;7114;51.100;13.998;2023-11-22T10:22:43;14.30;;;5.30;;
14076;SDS011;7114;51.100;13.998;2023-11-22T10:25:10;14.52;;;5.45;;
14076;SDS011;7114;51.100;13.998;2023-11-22T10:27:38;17.13;;;5.72;;
14076;SDS011;7114;51.100;13.998;2023-11-22T10:30:06;16.73;;;5.10;;
14076;SDS011;7114;51.100;13.998;2023-11-22T10:32:34;13.73;;;5.32;;
14076;SDS011;7114;51.100;13.998;2023-11-22T10:35:03;14.88;;;5.15;;
14076;SDS011;7114;51.100;13.998;2023-11-22T10:37:30;14.98;;;5.35;;
14076;SDS011;7114;51.100;13.998;2023-11-22T10:39:58;16.60;;;5.35;;
14076;SDS011;7114;51.100;13.998;2023-11-22T10:42:24;15.20;;;5.30;;
14076;SDS011;7114;51.100;13.998;2023-11-22T10:44:53;14.02;;;5.25;;
14076;SDS011;7114;51.100;13.998;2023-11-22T10:47:22;13.25;;;4.80;;
14076;SDS011;7114;51.100;13.998;2023-11-22T10:49:48;14.82;;;4.95;;
14076;SDS011;7114;51.100;13.998;2023-11-22T10:52:15;15.57;;;5.07;;
14076;SDS011;7114;51.100;13.998;2023-11-22T10:54:44;14.23;;;5.50;;
14076;SDS011;7114;51.100;13.998;2023-11-22T10:57:16;14.18;;;5.07;;
14076;SDS011;7114;51.100;13.998;2023-11-22T10:59:45;15.15;;;5.30;;
14076;SDS011;7114;51.100;13.998;2023-11-22T11:02:17;16.30;;;5.93;;
14076;SDS011;7114;51.100;13.998;2023-11-22T11:04:46;15.60;;;5.70;;
14076;SDS011;7114;51.100;13.998;2023-11-22T11:07:14;14.67;;;5.30;;
14076;SDS011;7114;51.100;13.998;2023-11-22T11:09:43;13.73;;;5.45;;
14076;SDS011;7114;51.100;13.998;2023-11-22T11:12:12;15.30;;;6.07;;
14076;SDS011;7114;51.100;13.998;2023-11-22T11:14:39;14.38;;;5.50;;
14076;SDS011;7114;51.100;13.998;2023-11-22T11:17:06;16.10;;;5.70;;
14076;SDS011;7114;51.100;13.998;2023-11-22T11:19:32;14.80;;;5.73;;
14076;SDS011;7114;51.100;13.998;2023-11-22T11:21:59;14.55;;;6.07;;
14076;SDS011;7114;51.100;13.998;2023-11-22T11:24:25;16.60;;;6.57;;
14076;SDS011;7114;51.100;13.998;2023-11-22T11:26:52;13.73;;;5.60;;
14076;SDS011;7114;51.100;13.998;2023-11-22T11:29:32;15.30;;;5.78;;
14076;SDS011;7114;51.100;13.998;2023-11-22T11:32:00;16.00;;;5.70;;
14076;SDS011;7114;51.100;13.998;2023-11-22T11:34:28;15.02;;;5.35;;
14076;SDS011;7114;51.100;13.998;2023-11-22T11:36:55;15.88;;;5.50;;
14076;SDS011;7114;51.100;13.998;2023-11-22T11:39:24;13.75;;;5.43;;
14076;SDS011;7114;51.100;13.998;2023-11-22T11:42:07;14.68;;;5.93;;
14076;SDS011;7114;51.100;13.998;2023-11-22T11:44:33;13.80;;;5.17;;
14076;SDS011;7114;51.100;13.998;2023-11-22T11:47:08;13.35;;;5.13;;
14076;SDS011;7114;51.100;13.998;2023-11-22T11:49:36;12.70;;;4.70;;
14076;SDS011;7114;51.100;13.998;2023-11-22T11:52:03;15.18;;;5.10;;
14076;SDS011;7114;51.100;13.998;2023-11-22T11:54:29;12.52;;;4.93;;
14076;SDS011;7114;51.100;13.998;2023-11-22T11:56:58;13.03;;;4.90;;
14076;SDS011;7114;51.100;13.998;2023-11-22T11:59:25;12.90;;;4.78;;
14076;SDS011;7114;51.100;13.998;2023-11-22T12:01:52;13.32;;;4.90;;
14076;SDS011;7114;51.100;13.998;2023-11-22T12:04:21;13.38;;;4.60;;
14076;SDS011;7114;51.100;13.998;2023-11-22T12:06:48;13.20;;;4.60;;
14076;SDS011;7114;51.100;13.998;2023-11-22T12:09:21;13.33;;;4.90;;
14076;SDS011;7114;51.100;13.998;2023-11-22T12:11:49;12.43;;;4.90;;
14076;SDS011;7114;51.100;13.998;2023-11-22T12:14:15;12.35;;;4.65;;
14076;SDS011;7114;51.100;13.998;2023-11-22T12:16:42;14.23;;;4.65;;
14076;SDS011;7114;51.100;13.998;2023-11-22T12:19:13;13.20;;;5.10;;
14076;SDS011;7114;51.100;13.998;2023-11-22T12:21:48;12.80;;;4.47;;
14076;SDS011;7114;51.100;13.998;2023-11-22T12:24:15;12.18;;;4.22;;
14076;SDS011;7114;51.100;13.998;2023-11-22T12:26:44;11.65;;;4.43;;
14076;SDS011;7114;51.100;13.998;2023-11-22T12:29:11;13.93;;;5.07;;
14076;SDS011;7114;51.100;13.998;2023-11-22T12:31:43;11.45;;;4.53;;
14076;SDS011;7114;51.100;13.998;2023-11-22T12:34:11;13.10;;;5.50;;
14076;SDS011;7114;51.100;13.998;2023-11-22T12:36:39;11.98;;;4.50;;
14076;SDS011;7114;51.100;13.998;2023-11-22T12:39:06;11.43;;;5.00;;
14076;SDS011;7114;51.100;13.998;2023-11-22T12:41:36;12.63;;;4.55;;
14076;SDS011;7114;51.100;13.998;2023-11-22T12:44:08;12.32;;;4.68;;
14076;SDS011;7114;51.100;13.998;2023-11-22T12:46:47;11.87;;;5.07;;
14076;SDS011;7114;51.100;13.998;2023-11-22T12:49:16;13.80;;;5.22;;
14076;SDS011;7114;51.100;13.998;2023-11-22T12:51:48;13.35;;;5.13;;
14076;SDS011;7114;51.100;13.998;2023-11-22T12:54:15;13.00;;;4.70;;
14076;SDS011;7114;51.100;13.998;2023-11-22T12:56:45;11.95;;;4.72;;
14076;SDS011;7114;51.100;13.998;2023-11-22T12:59:11;12.03;;;4.13;;
14076;SDS011;7114;51.100;13.998;2023-11-22T13:01:38;12.25;;;4.35;;
14076;SDS011;7114;51.100;13.998;2023-11-22T13:04:05;12.02;;;4.32;;
14076;SDS011;7114;51.100;13.998;2023-11-22T13:06:32;11.75;;;4.30;;
14076;SDS011;7114;51.100;13.998;2023-11-22T13:08:59;11.55;;;4.20;;
14076;SDS011;7114;51.100;13.998;2023-11-22T13:11:26;12.60;;;4.43;;
14076;SDS011;7114;51.100;13.998;2023-11-22T13:13:52;11.02;;;4.10;;
14076;SDS011;7114;51.100;13.998;2023-11-22T13:16:19;11.88;;;4.60;;
14076;SDS011;7114;51.100;13.998;2023-11-22T13:18:45;11.95;;;4.22;;
14076;SDS011;7114;51.100;13.998;2023-11-22T13:21:13;12.10;;;4.45;;
14076;SDS011;7114;51.100;13.998;2023-11-22T13:23:39;11.60;;;4.10;;
14076;SDS011;7114;51.100;13.998;2023-11-22T13:26:07;12.20;;;4.35;;
14076;SDS011;7114;51.100;13.998;2023-11-22T13:28:35;12.10;;;4.40;;
14076;SDS011;7114;51.100;13.998;2023-11-22T13:31:02;13.23;;;4.72;;
14076;SDS011;7114;51.100;13.998;2023-11-22T13:33:29;12.05;;;4.47;;
14076;SDS011;7114;51.100;13.998;2023-11-22T13:35:55;13.07;;;4.53;;
14076;SDS011;7114;51.100;13.998;2023-11-22T13:38:23;13.00;;;4.60;;
14076;SDS011;7114;51.100;13.998;2023-11-22T13:40:49;12.60;;;4.88;;
14076;SDS011;7114;51.100;13.998;2023-11-22T13:43:17;12.60;;;4.50;;
14076;SDS011;7114;51.100;13.998;2023-11-22T13:45:45;13.45;;;4.75;;
14076;SDS011;7114;51.100;13.998;2023-11-22T13:48:11;13.23;;;4.73;;
14076;SDS011;7114;51.100;13.998;2023-11-22T13:50:38;11.93;;;4.45;;
14076;SDS011;7114;51.100;13.998;2023-11-22T13:53:04;11.32;;;4.55;;
14076;SDS011;7114;51.100;13.998;2023-11-22T13:55:30;12.50;;;4.35;;
14076;SDS011;7114;51.100;13.998;2023-11-22T13:57:58;13.20;;;4.82;;
14076;SDS011;7114;51.100;13.998;2023-11-22T14:00:27;12.67;;;4.63;;
14076;SDS011;7114;51.100;13.998;2023-11-22T14:02:58;12.45;;;4.50;;
14076;SDS011;7114;51.100;13.998;2023-11-22T14:05:30;12.40;;;4.18;;
14076;SDS011;7114;51.100;13.998;2023-11-22T14:07:57;11.43;;;4.13;;
14076;SDS011;7114;51.100;13.998;2023-11-22T14:10:24;11.50;;;4.20;;
14076;SDS011;7114;51.100;13.998;2023-11-22T14:12:50;11.97;;;4.10;;
14076;SDS011;7114;51.100;13.998;2023-11-22T14:15:17;12.27;;;4.07;;
14076;SDS011;7114;51.100;13.998;2023-11-22T14:17:45;13.18;;;4.50;;
14076;SDS011;7114;51.100;13.998;2023-11-22T14:20:14;11.95;;;4.57;;
14076;SDS011;7114;51.100;13.998;2023-11-22T14:22:41;11.40;;;4.50;;
14076;SDS011;7114;51.100;13.998;2023-11-22T14:25:08;13.67;;;4.37;;
14076;SDS011;7114;51.100;13.998;2023-11-22T14:27:36;13.43;;;4.75;;
14076;SDS011;7114;51.100;13.998;2023-11-22T14:30:03;11.43;;;4.07;;
14076;SDS011;7114;51.100;13.998;2023-11-22T14:32:32;11.50;;;4.40;;
14076;SDS011;7114;51.100;13.998;2023-11-22T14:35:01;11.48;;;4.03;;